Terminal Aerodrome Forecast
Issued by NWS Charleston, WV

Current Version | Previous Version | Text Only | Print | Product List | Glossary Off
Versions: 1 2 3 4 5 6 7 8 9 10 11 12 13 14 15 16 17 18 19 20 21 22 23 24 25 26 27 28

000
FTUS41 KRLX 021142
TAFHTS
TAF
KHTS 021142Z 0212/0312 00000KT 1/2SM FG BKN005 OVC150
      TEMPO 0212/0213 2SM BR
     FM021300 VRB03KT 2SM HZ VCSH BKN008 BKN080
     FM021330 VRB03KT 5SM HZ VCSH BKN015 BKN080
     FM021500 VRB03KT 6SM HZ BKN025 BKN080
     FM021800 15005KT P6SM VCSH BKN050
     FM030200 VRB03KT 3SM BR BKN030
     FM030600 00000KT 2SM BR BKN020=

USA.gov is the U.S. government's official web portal to all federal, state and local government web resources and services.